Time;durP1;ratioP1;P1;durP2;ratioP2;P2;SDS_P1;SDS_P2;PMS_P1;PMS_P2;Temp;Humidity;BMP_temperature;BMP_pressure;BME280_temperature;BME280_humidity;BME280_pressure;Samples;Min_cycle;Max_cycle;Signal;HPM_P1;HPM_P2
2024/03/05 00:02:44;;;;;;;0.80;0.80;;;10.70;99.90;;;;;;10519845;28;20196;-78
2024/03/05 00:07:47;;;;;;;0.60;0.60;;;10.70;99.90;;;;;;10537622;28;20211;-76
2024/03/05 00:12:50;;;;;;;0.53;0.53;;;10.70;99.90;;;;;;10537533;28;20948;-76
2024/03/05 00:17:53;;;;;;;0.50;0.50;;;10.70;99.90;;;;;;10536065;28;20207;-77
2024/03/05 00:22:55;;;;;;;0.60;0.60;;;10.70;99.90;;;;;;10536334;28;20726;-77
2024/03/05 00:27:59;;;;;;;0.50;0.50;;;10.70;99.90;;;;;;10530838;28;20211;-75
2024/03/05 00:33:01;;;;;;;0.50;0.50;;;10.70;99.90;;;;;;10536748;28;20224;-77
2024/03/05 00:38:04;;;;;;;0.60;0.60;;;10.70;99.90;;;;;;10535789;28;20203;-77
2024/03/05 00:43:08;;;;;;;0.60;0.60;;;10.70;99.90;;;;;;10518089;28;20245;-77
2024/03/05 00:48:10;;;;;;;0.60;0.60;;;10.70;99.90;;;;;;10517051;28;20287;-76
2024/03/05 00:53:13;;;;;;;0.60;0.60;;;10.70;99.90;;;;;;10527806;28;20224;-77
2024/03/05 00:58:17;;;;;;;0.50;0.50;;;10.70;99.90;;;;;;10517508;28;20644;-76
2024/03/05 01:03:20;;;;;;;0.50;0.50;;;10.70;99.90;;;;;;10532514;28;20257;-77
2024/03/05 01:08:23;;;;;;;0.60;0.60;;;10.70;99.90;;;;;;10534773;28;20220;-77
2024/03/05 01:13:27;;;;;;;0.50;0.50;;;10.70;99.90;;;;;;10527116;28;20224;-77
2024/03/05 01:18:29;;;;;;;0.50;0.50;;;10.70;99.90;;;;;;10534295;28;20696;-77
2024/03/05 01:23:31;;;;;;;0.60;0.60;;;10.70;99.90;;;;;;10528274;28;20212;-77
2024/03/05 01:28:36;;;;;;;0.60;0.60;;;10.70;99.90;;;;;;10533817;28;20192;-77
2024/03/05 01:33:40;;;;;;;0.50;0.50;;;10.70;99.90;;;;;;10533967;28;20224;-77
2024/03/05 01:38:42;;;;;;;0.50;0.50;;;10.70;99.90;;;;;;10529072;28;20196;-76
2024/03/05 01:43:46;;;;;;;0.60;0.60;;;10.70;99.90;;;;;;10515826;28;20291;-77
2024/03/05 01:48:50;;;;;;;0.53;0.53;;;10.70;99.90;;;;;;10533137;28;20623;-77
2024/03/05 01:53:53;;;;;;;0.50;0.50;;;10.70;99.90;;;;;;10533250;28;20220;-77
2024/03/05 01:58:57;;;;;;;0.50;0.50;;;10.70;99.90;;;;;;10528502;28;20730;-77
2024/03/05 02:04:00;;;;;;;0.50;0.50;;;10.70;99.90;;;;;;10523710;28;20219;-77
2024/03/05 02:09:03;;;;;;;0.60;0.60;;;10.70;99.90;;;;;;10532274;28;20621;-77
2024/03/05 02:14:08;;;;;;;0.60;0.60;;;10.70;99.90;;;;;;10514178;28;20231;-77
2024/03/05 02:19:11;;;;;;;0.50;0.50;;;10.70;99.90;;;;;;10532193;28;20208;-76
2024/03/05 02:24:15;;;;;;;0.50;0.50;;;10.70;99.90;;;;;;10530363;28;20216;-77
2024/03/05 02:29:17;;;;;;;0.60;0.60;;;10.70;99.90;;;;;;10532461;28;20199;-77
2024/03/05 02:34:21;;;;;;;0.57;0.57;;;10.60;99.90;;;;;;10532893;28;20235;-77
2024/03/05 02:39:27;;;;;;;0.50;0.50;;;10.60;99.90;;;;;;10531497;28;20196;-77
2024/03/05 02:44:30;;;;;;;0.60;0.60;;;10.60;99.90;;;;;;10527278;28;20220;-77
2024/03/05 02:49:34;;;;;;;0.50;0.50;;;10.60;99.90;;;;;;10531332;28;20737;-76
2024/03/05 02:54:37;;;;;;;0.70;0.70;;;10.60;99.90;;;;;;10531288;28;20215;-77
2024/03/05 02:59:40;;;;;;;0.60;0.60;;;10.60;99.90;;;;;;10528693;28;20192;-77
2024/03/05 03:04:42;;;;;;;0.53;0.53;;;10.60;99.90;;;;;;10525338;28;20223;-76
2024/03/05 03:09:47;;;;;;;0.57;0.57;;;10.50;99.90;;;;;;10533586;28;20224;-77
2024/03/05 03:14:49;;;;;;;0.70;0.70;;;10.50;99.90;;;;;;10540074;28;20239;-77
2024/03/05 03:19:52;;;;;;;0.60;0.60;;;10.40;99.90;;;;;;10521336;28;20257;-77
2024/03/05 03:24:55;;;;;;;0.57;0.57;;;10.40;99.90;;;;;;10539201;28;20212;-77
2024/03/05 03:29:58;;;;;;;0.77;0.77;;;10.30;99.90;;;;;;10539115;28;20626;-76
2024/03/05 03:35:03;;;;;;;0.70;0.70;;;10.30;99.90;;;;;;10538483;28;20300;-77
2024/03/05 03:40:17;;;;;;;0.60;0.60;;;10.30;99.90;;;;;;10538524;28;20196;-77
2024/03/05 03:45:19;;;;;;;0.50;0.50;;;10.20;99.90;;;;;;10537931;28;20774;-78
2024/03/05 03:50:22;;;;;;;0.70;0.70;;;10.20;99.90;;;;;;10538575;28;20758;-76
2024/03/05 03:55:26;;;;;;;0.50;0.50;;;10.10;99.90;;;;;;10537122;28;20781;-76
2024/03/05 04:00:29;;;;;;;0.50;0.50;;;10.10;99.90;;;;;;10537394;28;20199;-77
2024/03/05 04:05:31;;;;;;;0.60;0.60;;;10.10;99.90;;;;;;10537197;28;20696;-77
2024/03/05 04:10:35;;;;;;;0.70;0.70;;;10.10;99.90;;;;;;10519439;28;20554;-76
2024/03/05 04:15:37;;;;;;;0.80;0.80;;;10.10;99.90;;;;;;10534705;28;20224;-77
2024/03/05 04:20:40;;;;;;;0.60;0.60;;;10.10;99.90;;;;;;10536634;28;20711;-76
2024/03/05 04:25:44;;;;;;;0.80;0.80;;;10.10;99.90;;;;;;10536516;28;20621;-77
2024/03/05 04:30:48;;;;;;;0.70;0.70;;;10.10;99.90;;;;;;10537020;28;20211;-77
2024/03/05 04:35:50;;;;;;;0.50;0.50;;;10.10;99.90;;;;;;10535748;28;20222;-77
2024/03/05 04:40:54;;;;;;;0.60;0.60;;;10.00;99.90;;;;;;10527481;28;20274;-77
2024/03/05 04:45:56;;;;;;;0.60;0.60;;;10.00;99.90;;;;;;10534115;28;20746;-76
2024/03/05 04:50:59;;;;;;;0.60;0.60;;;10.00;99.90;;;;;;10535123;28;20195;-77
2024/03/05 04:56:03;;;;;;;0.47;0.47;;;10.00;99.90;;;;;;10533095;28;20281;-76
2024/03/05 05:01:05;;;;;;;0.70;0.70;;;9.90;99.90;;;;;;10513491;28;20257;-76
2024/03/05 05:06:07;;;;;;;0.43;0.43;;;9.90;99.90;;;;;;10533462;28;20565;-77
2024/03/05 05:11:11;;;;;;;0.50;0.50;;;10.00;99.90;;;;;;10517341;28;20192;-78
2024/03/05 05:16:14;;;;;;;0.40;0.40;;;9.90;99.90;;;;;;10532580;28;20640;-77
2024/03/05 05:21:16;;;;;;;0.70;0.70;;;9.90;99.90;;;;;;10515067;28;20550;-77
2024/03/05 05:26:20;;;;;;;0.90;0.90;;;9.80;99.90;;;;;;10528486;28;20212;-77
2024/03/05 05:31:25;;;;;;;0.70;0.70;;;9.90;99.90;;;;;;10531890;28;20598;-77
2024/03/05 05:36:27;;;;;;;0.70;0.70;;;9.90;99.90;;;;;;10532937;28;20238;-77
2024/03/05 05:41:32;;;;;;;0.13;0.13;;;9.90;99.90;;;;;;10533455;28;20200;-77
2024/03/05 05:46:35;;;;;;;0.60;0.60;;;9.90;99.90;;;;;;10532297;28;20215;-77
2024/03/05 05:51:38;;;;;;;0.80;0.80;;;10.00;99.90;;;;;;10526318;28;20216;-77
2024/03/05 05:56:43;;;;;;;0.70;0.70;;;10.00;99.90;;;;;;10528561;28;20725;-77
2024/03/05 06:01:45;;;;;;;0.83;0.83;;;10.00;99.90;;;;;;10532990;28;20668;-77
2024/03/05 06:06:48;;;;;;;0.60;0.60;;;10.00;99.90;;;;;;10530770;28;20220;-78
2024/03/05 06:11:52;;;;;;;0.70;0.70;;;10.10;99.90;;;;;;10524576;28;20208;-77
2024/03/05 06:16:54;;;;;;;0.90;0.90;;;10.10;99.90;;;;;;10525054;28;20635;-78
2024/03/05 06:21:57;;;;;;;1.10;1.10;;;10.10;99.90;;;;;;10531175;28;20207;-77
2024/03/05 06:27:01;;;;;;;0.80;0.80;;;10.20;99.90;;;;;;10532146;28;20219;-77
2024/03/05 06:32:05;;;;;;;0.80;0.80;;;10.20;99.90;;;;;;10532010;28;20212;-78
2024/03/05 06:37:07;;;;;;;0.80;0.80;;;10.20;99.90;;;;;;10531191;28;20219;-77
2024/03/05 06:42:13;;;;;;;0.70;0.70;;;10.30;99.90;;;;;;10532083;28;20203;-77
2024/03/05 06:47:16;;;;;;;0.80;0.80;;;10.30;99.90;;;;;;10530945;28;20215;-77
2024/03/05 06:57:40;;;;;;;0.70;0.70;;;10.30;99.90;;;;;;10530718;28;20211;-77
2024/03/05 07:02:42;;;;;;;0.60;0.60;;;10.30;99.90;;;;;;10529347;28;20734;-76
2024/03/05 07:07:45;;;;;;;0.70;0.70;;;10.40;99.90;;;;;;10530043;28;20688;-76
2024/03/05 07:12:51;;;;;;;0.70;0.70;;;10.40;99.90;;;;;;10531144;28;20264;-78
2024/03/05 07:17:53;;;;;;;0.53;0.53;;;10.40;99.90;;;;;;10529234;28;20221;-78
2024/03/05 07:22:55;;;;;;;0.67;0.67;;;10.40;99.90;;;;;;10531151;28;20218;-78
2024/03/05 07:27:59;;;;;;;0.70;0.70;;;10.40;99.90;;;;;;10529182;28;20210;-78
2024/03/05 07:33:02;;;;;;;0.60;0.60;;;10.40;99.90;;;;;;10513205;28;20211;-77
2024/03/05 07:38:07;;;;;;;0.60;0.60;;;10.50;99.90;;;;;;10529390;28;20195;-77
2024/03/05 07:43:11;;;;;;;0.50;0.50;;;10.50;99.90;;;;;;10530421;28;20218;-76
2024/03/05 07:48:13;;;;;;;0.63;0.63;;;10.50;99.90;;;;;;10512361;28;20203;-77
2024/03/05 07:53:16;;;;;;;0.60;0.60;;;10.50;99.90;;;;;;10530172;28;20210;-77
2024/03/05 07:58:19;;;;;;;0.50;0.50;;;10.60;99.90;;;;;;10536251;28;20210;-77
2024/03/05 08:03:22;;;;;;;0.60;0.60;;;10.60;99.90;;;;;;10536416;28;20277;-76
2024/03/05 08:08:25;;;;;;;0.50;0.50;;;10.60;99.90;;;;;;10537062;28;20548;-78
2024/03/05 08:13:29;;;;;;;0.50;0.50;;;10.70;99.90;;;;;;10536881;28;20277;-77
2024/03/05 08:18:31;;;;;;;0.60;0.60;;;10.70;99.90;;;;;;10536647;28;20210;-78
2024/03/05 08:23:34;;;;;;;0.70;0.70;;;10.70;99.90;;;;;;10522412;28;20953;-77
2024/03/05 08:28:38;;;;;;;0.60;0.60;;;10.70;99.90;;;;;;10505022;28;20192;-78
2024/03/05 08:33:41;;;;;;;0.30;0.30;;;10.80;99.90;;;;;;10526122;28;20231;-77
2024/03/05 08:38:45;;;;;;;0.40;0.40;;;10.80;99.90;;;;;;10534704;28;20207;-76
2024/03/05 08:43:49;;;;;;;0.43;0.43;;;10.90;99.90;;;;;;10515793;28;20227;-78
2024/03/05 08:48:52;;;;;;;0.20;0.20;;;10.90;99.90;;;;;;10529594;28;20202;-77
2024/03/05 08:53:55;;;;;;;0.50;0.50;;;10.90;99.90;;;;;;10524763;28;20669;-78
2024/03/05 08:58:58;;;;;;;0.40;0.40;;;10.90;99.90;;;;;;10529138;28;20269;-77
2024/03/05 09:04:03;;;;;;;0.30;0.30;;;10.90;99.90;;;;;;10528000;28;20224;-77
2024/03/05 09:09:06;;;;;;;0.40;0.40;;;10.90;99.90;;;;;;10510531;28;20226;-79
2024/03/05 09:14:11;;;;;;;0.10;0.10;;;10.90;99.90;;;;;;10532105;28;20227;-77
2024/03/05 09:19:15;;;;;;;0.40;0.40;;;10.90;99.90;;;;;;10533038;28;20207;-78
2024/03/05 09:24:18;;;;;;;0.40;0.40;;;10.80;99.90;;;;;;10512704;28;20216;-77
2024/03/05 09:29:21;;;;;;;0.30;0.30;;;10.70;99.90;;;;;;10531502;28;20249;-77
2024/03/05 09:34:24;;;;;;;0.50;0.50;;;10.60;99.90;;;;;;10531657;28;20600;-78
2024/03/05 09:39:27;;;;;;;0.50;0.50;;;10.50;99.90;;;;;;10532551;28;20197;-77
2024/03/05 09:44:31;;;;;;;0.50;0.50;;;10.40;99.90;;;;;;10531977;28;20211;-77
2024/03/05 09:49:35;;;;;;;0.50;0.50;;;10.30;99.90;;;;;;10531803;28;20203;-77
2024/03/05 09:54:38;;;;;;;0.50;0.50;;;10.20;99.90;;;;;;10531592;28;20219;-77
2024/03/05 09:59:43;;;;;;;0.60;0.60;;;10.20;99.90;;;;;;10506009;28;20196;-75
2024/03/05 10:04:46;;;;;;;0.50;0.50;;;10.20;99.90;;;;;;10512351;28;20212;-78
2024/03/05 10:09:49;;;;;;;0.50;0.50;;;10.20;99.90;;;;;;10531336;28;20199;-77
2024/03/05 10:14:52;;;;;;;0.40;0.40;;;10.20;99.90;;;;;;10531415;28;20704;-77
2024/03/05 10:19:55;;;;;;;0.40;0.40;;;10.20;99.90;;;;;;10531323;28;20261;-77
2024/03/05 10:25:06;;;;;;;0.23;0.23;;;10.20;99.90;;;;;;10530605;28;20230;-78
2024/03/05 10:30:21;;;;;;;0.47;0.47;;;10.30;99.90;;;;;;10529750;28;20672;-77
2024/03/05 10:35:23;;;;;;;0.40;0.40;;;10.30;99.90;;;;;;10528757;28;20227;-77
2024/03/05 10:40:27;;;;;;;0.50;0.50;;;10.40;99.90;;;;;;10530128;28;20200;-77
2024/03/05 10:45:34;;;;;;;0.40;0.40;;;10.60;99.90;;;;;;10507143;28;20288;-78
2024/03/05 10:50:38;;;;;;;0.40;0.40;;;10.70;99.90;;;;;;10500862;28;20609;-77
2024/03/05 10:55:43;;;;;;;0.40;0.40;;;10.80;99.90;;;;;;10529412;28;20223;-78
2024/03/05 11:00:49;;;;;;;0.40;0.40;;;10.90;99.90;;;;;;10529800;28;20188;-78
2024/03/05 11:05:52;;;;;;;0.30;0.30;;;10.90;99.90;;;;;;10527546;28;20220;-77
2024/03/05 11:11:01;;;;;;;0.40;0.40;;;10.90;99.90;;;;;;10530711;28;20211;-78
2024/03/05 11:16:06;;;;;;;0.40;0.40;;;10.90;99.90;;;;;;10528981;28;20498;-78
2024/03/05 11:21:09;;;;;;;0.30;0.30;;;10.80;99.90;;;;;;10529716;28;20208;-78
2024/03/05 11:26:19;;;;;;;0.33;0.33;;;10.80;99.90;;;;;;10527422;28;20223;-78
2024/03/05 11:31:28;;;;;;;0.30;0.30;;;10.80;99.90;;;;;;10528257;28;20195;-77
2024/03/05 11:36:34;;;;;;;0.30;0.30;;;10.80;99.90;;;;;;10536954;28;20631;-77
2024/03/05 11:41:37;;;;;;;0.27;0.27;;;10.80;99.90;;;;;;10536932;28;20995;-76
2024/03/05 11:46:46;;;;;;;0.20;0.20;;;10.80;99.90;;;;;;10501434;28;20713;-76
2024/03/05 11:51:49;;;;;;;0.20;0.20;;;10.80;99.90;;;;;;10536840;28;20199;-78
2024/03/05 11:56:57;;;;;;;0.20;0.20;;;10.80;99.90;;;;;;10536185;28;20301;-77
2024/03/05 12:02:01;;;;;;;0.20;0.20;;;10.80;99.90;;;;;;10535858;28;20203;-76
2024/03/05 12:07:07;;;;;;;0.10;0.10;;;10.80;99.90;;;;;;10535020;28;20681;-78
2024/03/05 12:12:10;;;;;;;0.20;0.20;;;10.70;99.90;;;;;;10535206;28;20257;-77
2024/03/05 12:17:14;;;;;;;0.40;0.40;;;10.70;99.90;;;;;;10534991;28;20294;-79
2024/03/05 12:22:17;;;;;;;0.10;0.10;;;10.70;99.90;;;;;;10535659;28;20583;-78
2024/03/05 12:27:20;;;;;;;0.30;0.30;;;10.80;99.90;;;;;;10516282;28;20220;-77
2024/03/05 12:32:24;;;;;;;0.30;0.30;;;10.80;99.90;;;;;;10534148;28;20192;-77
2024/03/05 12:37:29;;;;;;;0.33;0.33;;;10.80;99.90;;;;;;10511769;28;20273;-77
2024/03/05 12:42:31;;;;;;;0.30;0.30;;;10.80;99.90;;;;;;10527502;28;20203;-77
2024/03/05 12:47:35;;;;;;;0.20;0.20;;;10.80;99.90;;;;;;10534440;28;20211;-77
2024/03/05 12:52:37;;;;;;;0.40;0.40;;;10.90;99.90;;;;;;10534613;28;20670;-78
2024/03/05 12:57:41;;;;;;;0.40;0.40;;;11.00;99.90;;;;;;10523623;28;20235;-76
2024/03/05 13:02:45;;;;;;;0.20;0.20;;;11.10;99.90;;;;;;10523370;28;20196;-78
2024/03/05 13:07:48;;;;;;;0.40;0.40;;;11.20;99.90;;;;;;10498213;28;20225;-77
2024/03/05 13:12:50;;;;;;;0.40;0.40;;;11.40;99.90;;;;;;10522091;28;20203;-77
2024/03/05 13:17:54;;;;;;;0.30;0.30;;;11.50;99.90;;;;;;10515311;28;20285;-77
2024/03/05 13:22:57;;;;;;;0.37;0.37;;;11.60;99.90;;;;;;10523582;28;20204;-76
2024/03/05 13:28:02;;;;;;;0.10;0.10;;;11.70;99.90;;;;;;10524054;28;20195;-77
2024/03/05 13:33:06;;;;;;;0.30;0.30;;;11.80;99.90;;;;;;10509016;28;20224;-78
2024/03/05 13:38:10;;;;;;;0.30;0.30;;;11.90;99.70;;;;;;10524370;28;20567;-77
2024/03/05 13:43:12;;;;;;;0.20;0.20;;;11.90;99.10;;;;;;10533307;28;20605;-78
2024/03/05 13:48:16;;;;;;;0.50;0.50;;;12.00;98.80;;;;;;10528929;28;20192;-77
2024/03/05 13:53:20;;;;;;;0.33;0.33;;;12.00;98.50;;;;;;10534416;28;20749;-78
2024/03/05 13:58:23;;;;;;;0.30;0.30;;;12.10;98.60;;;;;;10535778;28;20224;-77
2024/03/05 14:03:26;;;;;;;0.20;0.20;;;12.10;98.20;;;;;;10531607;28;20609;-78
2024/03/05 14:08:31;;;;;;;0.30;0.30;;;12.10;97.90;;;;;;10530827;28;20200;-77
2024/03/05 14:13:33;;;;;;;0.27;0.27;;;12.10;97.90;;;;;;10536324;28;20235;-77
2024/03/05 14:18:37;;;;;;;0.30;0.30;;;12.00;97.90;;;;;;10530540;28;20220;-77
2024/03/05 14:23:40;;;;;;;0.40;0.40;;;11.90;97.80;;;;;;10533670;28;20273;-76
2024/03/05 14:28:43;;;;;;;0.30;0.30;;;11.80;97.30;;;;;;10530812;28;20200;-78
2024/03/05 14:33:48;;;;;;;0.50;0.50;;;11.80;97.50;;;;;;10534335;28;20232;-77
2024/03/05 14:38:50;;;;;;;0.30;0.30;;;11.70;97.60;;;;;;10527637;28;20223;-77
2024/03/05 14:43:52;;;;;;;0.40;0.40;;;11.70;97.80;;;;;;10531613;28;20799;-78
2024/03/05 14:48:56;;;;;;;0.40;0.40;;;11.70;97.90;;;;;;10526145;28;20188;-78
2024/03/05 14:53:58;;;;;;;0.40;0.40;;;11.70;97.70;;;;;;10534911;28;20218;-77
2024/03/05 14:59:01;;;;;;;0.40;0.40;;;11.70;97.80;;;;;;10531851;28;20640;-77
2024/03/05 15:04:05;;;;;;;0.40;0.40;;;11.70;97.90;;;;;;10532963;28;20211;-78
2024/03/05 15:09:07;;;;;;;0.40;0.40;;;11.60;97.70;;;;;;10536271;28;20188;-76
2024/03/05 15:14:10;;;;;;;0.50;0.50;;;11.60;98.10;;;;;;10569004;22;20760;-83
2024/03/05 15:19:14;;;;;;;0.60;0.60;;;11.60;97.90;;;;;;10607539;27;20272;-83
2024/03/05 15:24:17;;;;;;;0.10;0.10;;;11.60;97.40;;;;;;10596964;28;20279;-82
2024/03/05 15:29:19;;;;;;;0.40;0.40;;;11.60;97.20;;;;;;10591778;28;20196;-82
2024/03/05 15:34:23;;;;;;;0.40;0.40;;;11.60;97.30;;;;;;10588549;28;20218;-82
2024/03/05 15:39:25;;;;;;;0.40;0.40;;;11.50;97.10;;;;;;10592013;28;20229;-82
2024/03/05 15:44:28;;;;;;;0.40;0.40;;;11.50;97.20;;;;;;10596175;28;21075;-82
2024/03/05 15:49:32;;;;;;;0.20;0.20;;;11.40;97.10;;;;;;10588976;28;20192;-82
2024/03/05 15:54:39;;;;;;;0.40;0.40;;;11.40;97.30;;;;;;10603106;27;20219;-82
2024/03/05 16:05:04;;;;;;;0.40;0.40;;;11.40;97.10;;;;;;10590069;28;20271;-82
2024/03/05 16:10:13;;;;;;;0.50;0.50;;;11.40;97.10;;;;;;10598323;28;20204;-82
2024/03/05 16:15:15;;;;;;;0.50;0.50;;;11.40;97.10;;;;;;10590414;28;20218;-82
2024/03/05 16:20:19;;;;;;;0.50;0.50;;;11.40;97.30;;;;;;10618949;28;20176;-83
2024/03/05 16:25:24;;;;;;;0.50;0.50;;;11.40;97.10;;;;;;10629013;28;20263;-82
2024/03/05 16:30:30;;;;;;;0.50;0.50;;;11.40;97.00;;;;;;10628318;28;20264;-84
2024/03/05 16:35:34;;;;;;;0.40;0.40;;;11.40;97.10;;;;;;10581856;28;20212;-82
2024/03/05 16:40:37;;;;;;;0.40;0.40;;;11.30;97.20;;;;;;10575397;28;20199;-82
2024/03/05 16:45:40;;;;;;;0.40;0.40;;;11.30;97.00;;;;;;10581185;28;20355;-83
2024/03/05 16:50:43;;;;;;;0.40;0.40;;;11.30;97.10;;;;;;10585108;28;20221;-83
2024/03/05 16:55:46;;;;;;;0.27;0.27;;;11.20;97.20;;;;;;10584789;28;20215;-82
2024/03/05 17:00:51;;;;;;;0.50;0.50;;;11.20;97.10;;;;;;10583424;28;20191;-83
2024/03/05 17:05:57;;;;;;;0.50;0.50;;;11.10;97.20;;;;;;10576602;28;20763;-83
2024/03/05 17:11:00;;;;;;;0.50;0.50;;;11.00;97.20;;;;;;10587952;28;20195;-84
2024/03/05 17:16:05;;;;;;;0.50;0.50;;;11.00;97.40;;;;;;10588804;28;20280;-83
2024/03/05 17:21:09;;;;;;;0.63;0.63;;;10.90;97.30;;;;;;10579290;28;20191;-84
2024/03/05 17:26:14;;;;;;;0.60;0.60;;;10.90;97.30;;;;;;10587320;28;20215;-83
2024/03/05 17:31:17;;;;;;;0.30;0.30;;;10.80;97.50;;;;;;10586632;28;20260;-83
2024/03/05 17:36:21;;;;;;;0.50;0.50;;;10.70;97.70;;;;;;10580984;28;20219;-84
2024/03/05 17:41:24;;;;;;;0.50;0.50;;;10.60;97.90;;;;;;10581259;28;20791;-83
2024/03/05 17:46:27;;;;;;;0.40;0.40;;;10.50;98.30;;;;;;10582140;28;20226;-83
2024/03/05 17:51:30;;;;;;;0.50;0.50;;;10.50;98.30;;;;;;10582075;28;20256;-83
2024/03/05 17:56:33;;;;;;;0.50;0.50;;;10.40;98.20;;;;;;10578428;28;20591;-83
2024/03/05 18:01:36;;;;;;;0.60;0.60;;;10.30;98.30;;;;;;10573659;28;20203;-83
2024/03/05 18:06:40;;;;;;;0.50;0.50;;;10.20;98.40;;;;;;10573934;28;20272;-84
2024/03/05 18:11:43;;;;;;;0.60;0.60;;;10.20;98.20;;;;;;10588848;28;20215;-84
2024/03/05 18:16:45;;;;;;;0.50;0.50;;;10.10;98.00;;;;;;10590137;28;20219;-83
2024/03/05 18:21:49;;;;;;;0.60;0.60;;;10.10;97.90;;;;;;10589897;28;20199;-83
2024/03/05 18:26:51;;;;;;;0.60;0.60;;;10.10;97.60;;;;;;10573904;28;20691;-83
2024/03/05 18:31:54;;;;;;;0.53;0.53;;;10.00;97.80;;;;;;10584731;28;20210;-82
2024/03/05 18:36:58;;;;;;;0.50;0.50;;;10.00;97.90;;;;;;10588809;28;20223;-82
2024/03/05 18:42:00;;;;;;;0.50;0.50;;;10.00;97.50;;;;;;10601273;28;20216;-84
2024/03/05 18:47:05;;;;;;;0.43;0.43;;;9.90;98.00;;;;;;10613825;28;20219;-82
2024/03/05 18:52:12;;;;;;;0.67;0.67;;;9.70;98.20;;;;;;10579945;28;20248;-79
2024/03/05 18:57:15;;;;;;;0.60;0.60;;;9.60;98.30;;;;;;10580361;28;20226;-80
2024/03/05 19:02:18;;;;;;;0.30;0.30;;;9.50;98.30;;;;;;10572374;28;20223;-81
2024/03/05 19:07:22;;;;;;;0.50;0.50;;;9.40;98.60;;;;;;10574119;28;20207;-80
2024/03/05 19:12:25;;;;;;;0.50;0.50;;;9.30;98.70;;;;;;10578342;28;20199;-81
2024/03/05 19:17:28;;;;;;;0.40;0.40;;;9.20;98.90;;;;;;10569694;28;20222;-81
2024/03/05 19:22:32;;;;;;;0.50;0.50;;;9.10;98.80;;;;;;10575005;28;20199;-81
2024/03/05 19:27:34;;;;;;;0.40;0.40;;;9.00;99.00;;;;;;10580677;28;20207;-82
2024/03/05 19:32:38;;;;;;;0.30;0.30;;;9.00;99.00;;;;;;10586939;28;20744;-82
2024/03/05 19:37:43;;;;;;;0.50;0.50;;;8.90;99.10;;;;;;10583363;28;20219;-82
2024/03/05 19:42:46;;;;;;;0.40;0.40;;;8.80;99.20;;;;;;10579975;28;20612;-82
2024/03/05 19:47:49;;;;;;;0.50;0.50;;;8.70;99.30;;;;;;10583572;28;20225;-82
2024/03/05 19:52:54;;;;;;;0.50;0.50;;;8.60;99.20;;;;;;10580882;28;20248;-82
2024/03/05 19:57:56;;;;;;;0.50;0.50;;;8.60;99.40;;;;;;10587052;28;20223;-84
2024/03/05 20:02:59;;;;;;;0.60;0.60;;;8.50;99.30;;;;;;10588137;28;20568;-84
2024/03/05 20:08:03;;;;;;;0.60;0.60;;;8.50;99.50;;;;;;10618810;27;20211;-83
2024/03/05 20:13:05;;;;;;;0.67;0.67;;;8.40;99.50;;;;;;10588847;27;20184;-84
2024/03/05 20:18:08;;;;;;;0.60;0.60;;;8.40;99.70;;;;;;10588602;28;20222;-83
2024/03/05 20:23:12;;;;;;;0.50;0.50;;;8.50;99.70;;;;;;10589583;28;20207;-82
2024/03/05 20:28:15;;;;;;;0.50;0.50;;;8.50;99.70;;;;;;10584265;28;20207;-81
2024/03/05 20:33:17;;;;;;;0.50;0.50;;;8.50;99.80;;;;;;10585817;28;20862;-82
2024/03/05 20:38:24;;;;;;;0.70;0.70;;;8.50;99.70;;;;;;10585820;28;20215;-82
2024/03/05 20:43:26;;;;;;;0.40;0.40;;;8.40;99.90;;;;;;10593487;28;20214;-83
2024/03/05 20:48:28;;;;;;;0.40;0.40;;;8.40;99.90;;;;;;10594737;28;20211;-82
2024/03/05 20:53:35;;;;;;;0.67;0.67;;;8.40;99.90;;;;;;10597385;28;20199;-82
2024/03/05 20:58:38;;;;;;;0.60;0.60;;;8.50;99.90;;;;;;10596833;28;20722;-84
2024/03/05 21:03:40;;;;;;;0.50;0.50;;;8.50;99.90;;;;;;10586360;28;20223;-84
2024/03/05 21:08:44;;;;;;;0.57;0.57;;;8.50;99.90;;;;;;10592979;28;20199;-84
2024/03/05 21:13:47;;;;;;;0.60;0.60;;;8.60;99.90;;;;;;10598026;28;20199;-84
2024/03/05 21:18:50;;;;;;;0.60;0.60;;;8.60;99.90;;;;;;10596025;22;20619;-77
2024/03/05 21:23:53;;;;;;;0.63;0.63;;;8.60;99.90;;;;;;10524514;28;20200;-76
2024/03/05 21:28:56;;;;;;;0.60;0.60;;;8.60;99.90;;;;;;10490532;28;20220;-76
2024/03/05 21:33:58;;;;;;;0.50;0.50;;;8.70;99.90;;;;;;10494653;28;20204;-77
2024/03/05 21:39:02;;;;;;;0.50;0.50;;;8.60;99.90;;;;;;10474190;28;20756;-76
2024/03/05 21:44:05;;;;;;;0.50;0.50;;;8.70;99.90;;;;;;10483084;28;20197;-77
2024/03/05 21:49:07;;;;;;;0.60;0.60;;;8.70;99.90;;;;;;10504219;28;20224;-76
2024/03/05 21:54:11;;;;;;;0.50;0.50;;;8.70;99.90;;;;;;10517956;28;20200;-76
2024/03/05 21:59:13;;;;;;;0.40;0.40;;;8.70;99.90;;;;;;10505232;28;20228;-76
2024/03/05 22:04:15;;;;;;;0.40;0.40;;;8.70;99.90;;;;;;10461404;28;20220;-76
2024/03/05 22:09:19;;;;;;;0.50;0.50;;;8.70;99.90;;;;;;10504942;28;20227;-78
2024/03/05 22:14:22;;;;;;;0.50;0.50;;;8.60;99.90;;;;;;10519319;28;20200;-75
2024/03/05 22:19:24;;;;;;;0.57;0.57;;;8.60;99.90;;;;;;10497656;28;20269;-74
2024/03/05 22:24:28;;;;;;;0.50;0.50;;;8.50;99.90;;;;;;10522157;28;20222;-76
2024/03/05 22:29:30;;;;;;;0.60;0.60;;;8.50;99.90;;;;;;10500285;28;20205;-75
2024/03/05 22:34:33;;;;;;;0.40;0.40;;;8.40;99.90;;;;;;10502045;28;20369;-75
2024/03/05 22:39:37;;;;;;;0.60;0.60;;;8.40;99.90;;;;;;10518389;28;20225;-76
2024/03/05 22:44:40;;;;;;;0.47;0.47;;;8.30;99.90;;;;;;10502908;28;20204;-76
2024/03/05 22:49:42;;;;;;;0.60;0.60;;;8.30;99.90;;;;;;10483435;28;20213;-76
2024/03/05 22:54:47;;;;;;;0.60;0.60;;;8.20;99.90;;;;;;10517580;28;20253;-75
2024/03/05 22:59:49;;;;;;;0.60;0.60;;;8.20;99.90;;;;;;10517637;28;20211;-76
2024/03/05 23:04:52;;;;;;;0.40;0.40;;;8.30;99.90;;;;;;10500227;28;20576;-75
2024/03/05 23:09:55;;;;;;;0.50;0.50;;;8.30;99.90;;;;;;10497789;28;20468;-75
2024/03/05 23:14:58;;;;;;;0.50;0.50;;;8.30;99.90;;;;;;10516916;28;20312;-76
2024/03/05 23:20:00;;;;;;;0.40;0.40;;;8.40;99.90;;;;;;10523141;28;20242;-75
2024/03/05 23:25:06;;;;;;;0.60;0.60;;;8.40;99.90;;;;;;10505556;28;20204;-76
2024/03/05 23:30:10;;;;;;;0.53;0.53;;;8.50;99.90;;;;;;10503077;28;20224;-75
2024/03/05 23:35:12;;;;;;;0.50;0.50;;;8.50;99.90;;;;;;10524271;28;20196;-76
2024/03/05 23:40:16;;;;;;;0.70;0.70;;;8.50;99.90;;;;;;10533774;28;20212;-76
2024/03/05 23:45:19;;;;;;;0.60;0.60;;;8.50;99.90;;;;;;10511346;28;20204;-74
2024/03/05 23:50:21;;;;;;;0.63;0.63;;;8.50;99.90;;;;;;10500735;28;20646;-75
2024/03/05 23:55:25;;;;;;;0.50;0.50;;;8.60;99.90;;;;;;10521530;28;20196;-76
